Time;durP1;ratioP1;P1;durP2;ratioP2;P2;SDS_P1;SDS_P2;PMS_P1;PMS_P2;Temp;Humidity;BMP_temperature;BMP_pressure;BME280_temperature;BME280_humidity;BME280_pressure;Samples;Min_cycle;Max_cycle;Signal;HPM_P1;HPM_P2
2022/02/10 00:17:11;;;;;;;10.13;7.30;;;;;;;2.35;100.00;97114.69;5019270;28;20077;-50
2022/02/10 00:20:03;;;;;;;7.47;6.57;;;;;;;2.34;100.00;97117.38;5015407;28;20067;-49
2022/02/10 00:22:42;;;;;;;8.73;6.50;;;;;;;2.34;100.00;97115.63;5017833;28;20077;-56
2022/02/10 00:36:24;;;;;;;8.82;7.07;;;;;;;2.23;100.00;97124.88;5018969;28;20556;-44
2022/02/10 00:39:01;;;;;;;9.65;6.93;;;;;;;2.18;100.00;97125.13;4999793;28;20465;-49
2022/02/10 00:41:30;;;;;;;9.48;6.75;;;;;;;2.20;100.00;97114.63;5016735;28;20065;-52
2022/02/10 00:44:00;;;;;;;8.98;6.60;;;;;;;2.17;100.00;97119.97;5016367;28;20076;-50
2022/02/10 00:46:28;;;;;;;13.07;7.47;;;;;;;2.13;100.00;97124.50;5008719;28;20476;-52
2022/02/10 00:48:57;;;;;;;8.50;6.78;;;;;;;1.87;100.00;97125.78;5001826;28;20527;-46
2022/02/10 00:51:25;;;;;;;10.82;7.45;;;;;;;1.82;100.00;97119.94;5016642;28;20621;-47
2022/02/10 00:53:53;;;;;;;10.18;7.22;;;;;;;1.86;100.00;97126.72;5017643;28;20088;-46
2022/02/10 00:56:22;;;;;;;10.43;7.32;;;;;;;1.77;100.00;97128.00;5020505;28;20105;-47
2022/02/10 00:58:58;;;;;;;10.52;8.18;;;;;;;1.83;100.00;97127.69;5016545;28;20070;-47
2022/02/10 01:07:05;;;;;;;9.07;7.47;;;;;;;1.59;100.00;97124.53;5018442;28;20062;-51
2022/02/10 01:12:42;;;;;;;10.68;7.22;;;;;;;1.62;100.00;97121.78;5016765;28;20100;-46
2022/02/10 01:29:38;;;;;;;9.57;7.15;;;;;;;1.47;100.00;97125.09;4981996;28;20074;-54
2022/02/10 01:32:08;;;;;;;8.68;7.45;;;;;;;1.50;100.00;97131.91;4998446;28;20073;-47
2022/02/10 01:34:39;;;;;;;8.77;7.85;;;;;;;1.51;100.00;97121.44;4992402;28;20085;-45
2022/02/10 01:37:08;;;;;;;8.57;7.20;;;;;;;1.51;100.00;97118.81;4992480;28;20512;-46
2022/02/10 01:39:43;;;;;;;12.00;7.88;;;;;;;1.47;100.00;97112.09;5003035;28;20542;-47
2022/02/10 01:42:49;;;;;;;11.23;7.57;;;;;;;1.50;100.00;97116.31;5004198;28;20082;-44
2022/02/10 02:04:35;;;;;;;9.80;7.40;;;;;;;1.27;100.00;97081.84;4997035;28;20061;-46
2022/02/10 02:07:05;;;;;;;9.43;7.45;;;;;;;1.29;100.00;97076.59;5004864;28;20077;-47
2022/02/10 02:09:34;;;;;;;10.02;7.43;;;;;;;1.30;100.00;97073.91;5001102;28;20087;-44
2022/02/10 02:12:07;;;;;;;11.02;8.13;;;;;;;1.26;100.00;97080.19;4979427;28;20090;-49
2022/02/10 02:14:37;;;;;;;9.68;7.78;;;;;;;1.16;100.00;97073.72;5002148;28;20066;-48
2022/02/10 02:17:06;;;;;;;;;;;;;;;1.13;100.00;97074.69;5002924;28;20436;-53
2022/02/10 02:19:35;;;;;;;8.68;6.88;;;;;;;1.17;100.00;97068.47;5002232;28;19988;-49
2022/02/10 02:22:05;;;;;;;7.53;6.60;;;;;;;1.18;100.00;97064.97;4993736;28;20466;-54
2022/02/10 02:24:34;;;;;;;7.57;5.82;;;;;;;1.15;100.00;97064.25;4980162;28;20078;-54
2022/02/10 02:27:06;;;;;;;6.50;5.80;;;;;;;1.35;100.00;97056.38;4982198;28;20078;-48
2022/02/10 02:29:40;;;;;;;6.82;5.53;;;;;;;1.26;100.00;97058.56;4998792;28;20073;-49
2022/02/10 02:32:14;;;;;;;6.95;5.78;;;;;;;1.37;100.00;97048.47;5000807;28;20525;-50
2022/02/10 02:35:18;;;;;;;5.95;5.43;;;;;;;1.35;100.00;97048.56;5001957;28;20076;-52
2022/02/10 02:38:03;;;;;;;5.78;5.25;;;;;;;1.45;100.00;97041.19;5002432;28;20065;-48
2022/02/10 03:05:45;;;;;;;5.45;4.95;;;;;;;1.22;100.00;97037.06;5001160;28;20104;-44
2022/02/10 03:08:18;;;;;;;6.15;5.55;;;;;;;1.22;100.00;97031.88;5001005;28;20551;-49
2022/02/10 03:11:03;;;;;;;6.38;5.78;;;;;;;1.16;100.00;97027.81;4996414;28;20061;-54
2022/02/10 03:13:36;;;;;;;5.28;4.82;;;;;;;1.23;100.00;97033.56;5002003;28;20065;-48
2022/02/10 03:16:34;;;;;;;5.82;5.32;;;;;;;1.19;100.00;97032.84;5005362;28;20132;-46
2022/02/10 03:19:16;;;;;;;5.70;5.20;;;;;;;1.25;100.00;97023.09;5002294;28;20531;-47
2022/02/10 03:22:00;;;;;;;5.90;5.30;;;;;;;1.28;100.00;97031.59;5003086;28;20062;-53
2022/02/10 04:01:14;;;;;;;6.45;5.80;;;;;;;0.92;100.00;97021.19;4997188;28;20076;-46
2022/02/10 04:04:10;;;;;;;6.97;6.00;;;;;;;0.84;100.00;97025.91;4997991;28;20076;-54
2022/02/10 04:09:52;;;;;;;8.48;6.30;;;;;;;0.53;100.00;97011.72;4996789;28;20543;-46
2022/02/10 04:15:14;;;;;;;6.45;5.65;;;;;;;0.49;100.00;97012.78;4968320;28;21548;-53
2022/02/10 04:17:54;;;;;;;6.80;6.20;;;;;;;0.38;100.00;97022.78;5004680;28;20499;-48
2022/02/10 04:20:45;;;;;;;6.35;5.75;;;;;;;0.21;100.00;97024.38;4982585;28;20065;-46
2022/02/10 04:23:24;;;;;;;8.27;6.45;;;;;;;0.27;100.00;97012.88;4997119;28;20077;-47
2022/02/10 04:26:05;;;;;;;7.73;6.73;;;;;;;0.29;100.00;97013.66;5000202;28;20073;-48
2022/02/10 04:28:50;;;;;;;6.53;5.93;;;;;;;0.50;100.00;97011.84;5000937;28;20086;-49
2022/02/10 04:31:55;;;;;;;7.30;6.50;;;;;;;0.56;100.00;97014.19;5001441;28;20084;-53
2022/02/10 04:37:46;;;;;;;6.30;5.70;;;;;;;0.45;100.00;97000.88;5001702;28;20069;-49
2022/02/10 04:57:17;;;;;;;5.70;5.20;;;;;;;0.84;100.00;96992.16;4981088;28;20610;-46
2022/02/10 05:00:02;;;;;;;6.30;5.70;;;;;;;0.75;100.00;96987.38;4984072;28;20435;-50
2022/02/10 05:03:09;;;;;;;7.28;5.72;;;;;;;0.66;100.00;96992.09;4983641;28;20504;-53
2022/02/10 05:22:36;;;;;;;5.97;5.38;;;;;;;0.18;100.00;96972.66;4996591;28;20351;-54
2022/02/10 05:33:42;;;;;;;5.30;4.88;;;;;;;0.63;100.00;96973.22;5001608;28;20104;-50
2022/02/10 05:36:14;;;;;;;5.72;5.20;;;;;;;0.68;100.00;96979.03;5002593;28;20536;-49
2022/02/10 05:38:48;;;;;;;5.82;4.70;;;;;;;0.75;100.00;96974.41;4999967;28;20066;-57
2022/02/10 05:47:25;;;;;;;4.60;4.30;;;;;;;0.85;100.00;96988.63;5007510;28;20072;-52
2022/02/10 05:55:43;;;;;;;4.90;4.40;;;;;;;0.98;100.00;96976.75;5008052;28;20580;-47
2022/02/10 05:58:21;;;;;;;5.78;4.78;;;;;;;0.90;100.00;96978.88;5011491;28;20068;-48
2022/02/10 06:51:22;;;;;;;4.50;4.20;;;;;;;1.17;100.00;96993.16;4921889;29;20082;-51
2022/02/10 06:54:03;;;;;;;4.78;4.38;;;;;;;1.22;100.00;97003.31;4992548;28;20060;-49
2022/02/10 06:57:07;;;;;;;4.53;4.13;;;;;;;1.28;100.00;97002.19;5004221;28;20689;-52
2022/02/10 07:05:51;;;;;;;5.57;4.40;;;;;;;1.14;100.00;97008.03;4963818;28;20073;-49
2022/02/10 07:08:44;;;;;;;6.63;4.63;;;;;;;1.54;100.00;97014.72;5003516;28;20138;-51
2022/02/10 07:14:40;;;;;;;5.07;4.50;;;;;;;1.90;100.00;97004.25;4962572;28;20104;-49
2022/02/10 07:17:23;;;;;;;4.80;4.40;;;;;;;2.08;100.00;96996.41;4994117;28;20066;-53
2022/02/10 07:47:53;;;;;;;5.00;4.55;;;;;;;2.85;100.00;96995.78;4978462;28;20070;-51
2022/02/10 07:53:31;;;;;;;13.80;5.10;;;;;;;3.25;100.00;96997.03;4985732;28;20061;-51
2022/02/10 08:55:14;;;;;;;9.50;4.28;;;;;;;6.87;100.00;96922.41;5012360;28;20072;-51
2022/02/10 08:58:09;;;;;;;8.02;4.50;;;;;;;6.94;100.00;96928.06;5004236;28;20070;-51
2022/02/10 09:03:37;;;;;;;5.25;4.20;;;;;;;7.21;100.00;96932.25;4993137;28;20074;-50
2022/02/10 09:06:15;;;;;;;4.60;3.80;;;;;;;7.56;100.00;96929.66;5012123;28;20086;-49
2022/02/10 09:20:28;;;;;;;9.38;3.55;;;;;;;8.80;100.00;96930.63;4972174;28;20664;-49
2022/02/10 09:59:34;;;;;;;5.65;3.30;;;;;;;10.58;100.00;96908.78;4954246;28;20071;-49
2022/02/10 10:02:09;;;;;;;3.92;3.17;;;;;;;10.55;100.00;96909.06;5004832;28;20077;-50
2022/02/10 10:04:46;;;;;;;3.70;3.10;;;;;;;10.74;100.00;96912.75;5004706;28;20065;-45
2022/02/10 10:07:30;;;;;;;6.43;3.60;;;;;;;10.88;100.00;96909.72;5015177;28;20068;-46
2022/02/10 10:13:24;;;;;;;7.32;3.25;;;;;;;11.02;100.00;96908.50;5006826;28;20069;-49
2022/02/10 10:16:03;;;;;;;5.90;3.23;;;;;;;11.03;100.00;96894.31;4997741;28;20073;-52
2022/02/10 10:18:52;;;;;;;4.32;3.42;;;;;;;11.11;100.00;96902.38;4985933;28;20077;-51
2022/02/10 10:21:27;;;;;;;6.30;3.40;;;;;;;11.30;100.00;96902.41;5005774;28;20401;-53
2022/02/10 10:24:18;;;;;;;6.10;3.25;;;;;;;11.55;100.00;96893.09;5009695;28;20430;-49
2022/02/10 10:49:54;;;;;;;6.20;3.47;;;;;;;12.68;100.00;96868.44;4997897;28;20205;-54
2022/02/10 10:52:41;;;;;;;6.32;3.40;;;;;;;12.59;100.00;96869.31;4982376;28;20077;-53
2022/02/10 10:57:53;;;;;;;5.15;3.42;;;;;;;12.72;100.00;96858.41;4986787;28;20069;-45
2022/02/10 11:38:13;;;;;;;4.95;3.67;;;;;;;13.76;100.00;96805.72;5010719;28;20084;-51
2022/02/10 11:44:19;;;;;;;4.53;3.20;;;;;;;13.73;95.11;96798.09;4990829;28;20061;-45
2022/02/10 12:39:21;;;;;;;5.13;2.63;;;;;;;14.19;75.88;96765.03;5006630;28;20056;-46
2022/02/10 14:10:20;;;;;;;4.50;2.90;;;;;;;14.15;95.79;96713.28;4983555;28;20130;-47
2022/02/10 14:12:52;;;;;;;4.88;2.92;;;;;;;14.02;100.00;96704.94;4984267;28;20104;-51
2022/02/10 14:15:34;;;;;;;5.93;3.10;;;;;;;14.12;99.21;96718.09;4979527;28;20085;-52
2022/02/10 14:18:22;;;;;;;6.20;3.10;;;;;;;14.17;93.52;96715.78;4986984;28;20523;-52
2022/02/10 14:20:59;;;;;;;5.13;2.97;;;;;;;13.82;96.12;96708.84;5010539;28;20088;-51
2022/02/10 14:26:32;;;;;;;4.57;3.17;;;;;;;13.89;100.00;96725.78;5005179;28;20069;-46
2022/02/10 14:29:01;;;;;;;7.45;3.35;;;;;;;13.81;100.00;96715.97;5011000;28;20073;-51
2022/02/10 14:31:29;;;;;;;5.03;3.03;;;;;;;13.45;100.00;96721.38;5012750;28;20064;-50
2022/02/10 14:33:58;;;;;;;4.80;3.50;;;;;;;13.45;100.00;96708.13;5003636;28;20092;-50
2022/02/10 14:36:32;;;;;;;7.28;3.92;;;;;;;13.59;100.00;96721.78;5004135;28;20092;-48
2022/02/10 14:39:21;;;;;;;9.07;3.22;;;;;;;13.60;100.00;96721.66;5013131;28;20080;-54
2022/02/10 15:20:40;;;;;;;8.35;4.63;;;;;;;12.93;100.00;96710.72;5008898;28;20392;-53
2022/02/10 16:15:10;;;;;;;10.70;5.25;;;;;;;12.04;100.00;96716.81;4997534;28;20061;-51
2022/02/10 16:17:40;;;;;;;9.25;4.70;;;;;;;11.94;100.00;96708.09;4999775;28;20081;-49
2022/02/10 16:20:17;;;;;;;7.40;4.22;;;;;;;11.81;100.00;96702.28;5000986;28;20069;-49
2022/02/10 16:22:59;;;;;;;7.95;4.78;;;;;;;11.77;100.00;96703.56;5001610;28;20066;-50
2022/02/10 16:25:27;;;;;;;7.53;4.50;;;;;;;11.85;100.00;96701.03;4997783;28;20705;-50
2022/02/10 16:28:25;;;;;;;8.73;5.07;;;;;;;11.92;100.00;96696.81;4994689;28;20062;-50
2022/02/10 16:30:54;;;;;;;9.63;4.90;;;;;;;11.88;100.00;96698.09;4991504;28;20089;-55
2022/02/10 16:33:29;;;;;;;8.15;4.82;;;;;;;11.72;100.00;96692.56;4983344;28;20093;-47
2022/02/10 16:36:05;;;;;;;6.43;4.90;;;;;;;11.74;100.00;96699.38;4987990;28;20085;-51
2022/02/10 16:38:39;;;;;;;11.88;5.25;;;;;;;11.78;100.00;96702.56;4980717;28;20078;-51
2022/02/10 16:41:13;;;;;;;7.10;5.05;;;;;;;11.68;100.00;96701.78;4995917;28;20069;-57
2022/02/10 16:43:46;;;;;;;8.75;5.00;;;;;;;11.56;100.00;96696.69;5003036;28;20464;-52
2022/02/10 16:46:19;;;;;;;6.75;5.00;;;;;;;11.37;100.00;96699.38;5001041;28;20512;-50
2022/02/10 16:48:53;;;;;;;8.52;4.97;;;;;;;11.37;100.00;96692.28;4999320;28;20073;-48
2022/02/10 16:51:27;;;;;;;8.68;5.00;;;;;;;11.31;100.00;96706.06;4998908;28;20074;-48
2022/02/10 16:54:04;;;;;;;8.00;4.93;;;;;;;11.58;100.00;96701.81;4990848;28;20077;-49
2022/02/10 16:56:50;;;;;;;9.13;5.32;;;;;;;11.56;100.00;96696.69;4986867;28;20073;-49
2022/02/10 16:59:39;;;;;;;7.10;4.70;;;;;;;11.32;100.00;96694.53;4987417;28;20065;-47
2022/02/10 17:02:26;;;;;;;8.13;5.18;;;;;;;11.39;100.00;96697.44;5002914;28;20070;-49
2022/02/10 17:27:19;;;;;;;7.57;5.57;;;;;;;10.90;100.00;96737.09;5008127;28;20092;-46
2022/02/10 17:30:46;;;;;;;9.25;5.63;;;;;;;10.75;100.00;96741.13;5003854;28;20070;-48
2022/02/10 17:33:16;;;;;;;8.27;5.80;;;;;;;10.75;100.00;96737.66;4979601;28;21498;-51
2022/02/10 17:36:03;;;;;;;8.55;5.28;;;;;;;10.68;100.00;96740.84;4984565;28;20090;-51
2022/02/10 17:41:43;;;;;;;8.20;5.70;;;;;;;10.42;100.00;96755.53;4980607;28;20058;-51
2022/02/10 17:52:32;;;;;;;9.65;5.72;;;;;;;10.04;100.00;96783.41;4993094;28;20104;-53
2022/02/10 17:55:01;;;;;;;11.20;6.70;;;;;;;9.99;100.00;96791.72;4997895;28;20073;-50
2022/02/10 17:57:30;;;;;;;11.60;6.20;;;;;;;9.86;100.00;96787.66;4983306;28;20085;-49
2022/02/10 17:59:59;;;;;;;12.23;6.87;;;;;;;9.95;100.00;96790.34;4987570;28;20492;-49
2022/02/10 18:02:27;;;;;;;10.07;6.95;;;;;;;10.01;100.00;96793.38;4983142;28;21066;-47
2022/02/10 18:04:59;;;;;;;9.30;6.80;;;;;;;9.92;100.00;96787.13;4981160;28;20069;-46
2022/02/10 18:07:28;;;;;;;9.75;6.85;;;;;;;9.84;100.00;96792.19;4982643;28;20082;-50
2022/02/10 18:10:25;;;;;;;11.88;7.20;;;;;;;9.70;100.00;96788.13;4983904;28;20067;-51
2022/02/10 18:13:22;;;;;;;10.30;6.97;;;;;;;9.58;100.00;96797.91;4987620;28;20073;-48
2022/02/10 18:15:54;;;;;;;12.07;7.00;;;;;;;9.43;100.00;96802.69;5003079;28;20069;-49
2022/02/10 18:18:26;;;;;;;10.35;7.10;;;;;;;9.24;100.00;96805.16;5005250;28;20081;-48
2022/02/10 18:21:04;;;;;;;9.25;7.05;;;;;;;9.27;100.00;96808.38;5000449;28;20069;-49
2022/02/10 18:23:37;;;;;;;10.75;7.18;;;;;;;9.43;100.00;96805.31;5002514;28;20136;-52
2022/02/10 18:26:14;;;;;;;11.48;7.53;;;;;;;9.43;100.00;96799.22;5004884;28;20065;-52
2022/02/10 18:29:01;;;;;;;11.23;7.72;;;;;;;9.41;100.00;96812.50;4997007;28;20070;-51
2022/02/10 18:35:22;;;;;;;11.23;7.60;;;;;;;9.45;100.00;96815.69;4999631;28;20084;-52
2022/02/10 19:07:55;;;;;;;12.18;8.32;;;;;;;9.54;100.00;96833.38;5003849;28;20064;-46
2022/02/10 19:10:26;;;;;;;12.23;8.80;;;;;;;9.58;100.00;96826.03;4995093;28;20607;-48
2022/02/10 19:12:56;;;;;;;13.15;8.60;;;;;;;9.66;100.00;96834.13;5004389;28;20634;-49
2022/02/10 19:15:33;;;;;;;13.90;9.05;;;;;;;9.72;100.00;96834.44;5003647;28;20080;-53
2022/02/10 19:18:05;;;;;;;13.50;9.00;;;;;;;9.65;100.00;96838.56;5004202;28;20488;-52
2022/02/10 19:20:34;;;;;;;11.32;8.63;;;;;;;9.68;100.00;96835.66;5000204;28;20057;-55
2022/02/10 19:23:08;;;;;;;13.73;9.00;;;;;;;9.58;100.00;96832.13;4998245;28;20096;-54
2022/02/10 19:25:38;;;;;;;17.08;8.88;;;;;;;9.54;100.00;96833.38;5006762;28;20082;-50
2022/02/10 19:28:08;;;;;;;12.13;8.60;;;;;;;9.49;100.00;96836.38;5002562;28;20072;-47
2022/02/10 19:30:38;;;;;;;16.73;11.05;;;;;;;9.32;100.00;96844.00;4994763;28;20084;-47
2022/02/10 19:33:12;;;;;;;12.20;9.80;;;;;;;9.40;100.00;96852.13;5005060;28;20089;-52
2022/02/10 19:35:44;;;;;;;15.00;9.35;;;;;;;9.37;100.00;96855.84;5002664;28;20069;-60
2022/02/10 19:38:17;;;;;;;16.63;8.63;;;;;;;9.26;100.00;96856.72;5004365;28;20429;-55
2022/02/10 19:40:50;;;;;;;12.57;8.57;;;;;;;9.03;100.00;96852.50;5002886;28;20169;-48
2022/02/10 19:43:20;;;;;;;12.30;8.73;;;;;;;9.14;100.00;96862.97;4997307;28;20069;-52
2022/02/10 19:45:49;;;;;;;14.52;7.90;;;;;;;8.47;100.00;96871.91;5001564;28;20068;-47
2022/02/10 19:48:19;;;;;;;12.45;8.20;;;;;;;8.60;100.00;96868.28;4999796;28;20077;-49
2022/02/10 19:50:47;;;;;;;13.38;9.25;;;;;;;8.61;100.00;96869.97;4983827;28;20089;-50
2022/02/10 19:53:18;;;;;;;11.40;8.40;;;;;;;8.59;100.00;96877.97;4986650;28;20077;-50
2022/02/10 19:55:47;;;;;;;13.90;8.80;;;;;;;8.88;100.00;96874.78;4974998;28;20497;-48
2022/02/10 19:58:20;;;;;;;11.65;8.50;;;;;;;8.42;100.00;96876.66;4978540;28;20576;-50
2022/02/10 20:00:52;;;;;;;14.07;9.32;;;;;;;8.39;100.00;96868.19;4983836;28;20058;-54
2022/02/10 20:03:23;;;;;;;12.40;9.23;;;;;;;8.22;100.00;96880.81;4982677;28;20692;-52
2022/02/10 20:05:52;;;;;;;15.27;9.35;;;;;;;8.43;100.00;96880.97;4980580;28;20477;-52
2022/02/10 20:08:22;;;;;;;17.42;9.25;;;;;;;8.48;100.00;96893.75;4980509;28;20509;-51
2022/02/10 20:10:54;;;;;;;16.38;9.77;;;;;;;8.54;100.00;96902.00;4979088;28;20066;-57
2022/02/10 20:13:23;;;;;;;15.93;9.25;;;;;;;8.32;100.00;96907.22;4980792;28;20093;-50
2022/02/10 20:15:52;;;;;;;13.90;9.98;;;;;;;8.62;100.00;96888.22;4983458;28;20104;-53
2022/02/10 20:18:22;;;;;;;15.18;10.10;;;;;;;8.52;100.00;96895.19;4985463;28;20082;-52
2022/02/10 20:20:53;;;;;;;12.43;9.77;;;;;;;8.51;100.00;96896.97;4979986;28;20433;-49
2022/02/10 20:23:24;;;;;;;15.50;10.40;;;;;;;8.38;100.00;96883.13;4983508;28;20084;-52
2022/02/10 20:26:08;;;;;;;12.65;9.85;;;;;;;8.50;100.00;96889.22;4984233;28;20073;-52
2022/02/10 20:28:37;;;;;;;22.13;10.27;;;;;;;8.52;100.00;96877.59;4979779;28;20066;-49
2022/02/10 20:31:07;;;;;;;17.35;9.90;;;;;;;8.69;100.00;96878.06;4980141;28;20749;-55
2022/02/10 20:33:38;;;;;;;18.02;10.35;;;;;;;8.73;100.00;96874.22;4989698;28;20082;-54
2022/02/10 20:36:07;;;;;;;15.77;9.60;;;;;;;8.70;100.00;96893.69;5007546;28;20077;-51
2022/02/10 20:38:39;;;;;;;13.80;9.30;;;;;;;8.77;100.00;96887.03;4985008;28;20532;-52
2022/02/10 20:41:12;;;;;;;15.15;10.27;;;;;;;8.94;100.00;96882.19;4981880;28;20066;-49
2022/02/10 20:43:40;;;;;;;17.40;10.52;;;;;;;8.79;100.00;96885.09;4996411;28;20073;-48
2022/02/10 20:46:12;;;;;;;14.73;10.48;;;;;;;8.44;100.00;96882.66;5003905;28;20057;-49
2022/02/10 20:48:43;;;;;;;17.23;10.85;;;;;;;8.86;100.00;96888.06;5003287;28;20082;-50
2022/02/10 20:51:13;;;;;;;14.25;9.90;;;;;;;8.96;100.00;96880.28;5007850;28;20084;-46
2022/02/10 20:53:44;;;;;;;13.98;10.55;;;;;;;9.03;100.00;96881.44;5003613;28;20057;-46
2022/02/10 20:56:13;;;;;;;;;;;;;;;9.09;100.00;96880.97;4991229;28;20469;-51
2022/02/10 20:58:42;;;;;;;16.45;10.10;;;;;;;9.09;100.00;96870.44;4994774;28;19968;-48
2022/02/10 21:01:13;;;;;;;18.27;10.80;;;;;;;9.10;100.00;96871.25;5008055;28;20511;-52
2022/02/10 21:03:44;;;;;;;13.85;10.48;;;;;;;8.94;100.00;96869.03;5001010;28;23268;-48
2022/02/10 21:06:23;;;;;;;15.98;9.93;;;;;;;9.08;100.00;96876.63;5002335;28;20630;-50
2022/02/10 21:08:57;;;;;;;18.10;10.68;;;;;;;8.90;100.00;96878.13;5001943;28;21435;-52
2022/02/10 21:11:27;;;;;;;18.17;11.45;;;;;;;9.00;100.00;96865.91;5003040;28;20057;-48
2022/02/10 21:14:02;;;;;;;19.08;10.93;;;;;;;8.93;100.00;96876.09;5001911;28;20076;-54
2022/02/10 21:16:30;;;;;;;19.50;11.25;;;;;;;8.68;100.00;96860.63;5005961;28;20073;-51
2022/02/10 21:19:00;;;;;;;16.90;11.32;;;;;;;8.71;100.00;96863.00;5006593;28;20072;-49
2022/02/10 21:21:28;;;;;;;16.67;10.77;;;;;;;8.58;100.00;96857.91;5006075;28;20089;-50
2022/02/10 21:24:02;;;;;;;14.52;10.30;;;;;;;8.50;100.00;96853.25;4992938;28;20512;-57
2022/02/10 21:26:34;;;;;;;18.10;10.50;;;;;;;8.93;100.00;96848.97;4986206;28;20438;-51
2022/02/10 21:29:05;;;;;;;15.90;11.10;;;;;;;8.57;100.00;96856.22;4979449;28;20077;-53
2022/02/10 21:31:42;;;;;;;15.57;10.95;;;;;;;8.67;100.00;96854.53;4978082;28;20063;-53
2022/02/10 21:34:16;;;;;;;15.23;10.80;;;;;;;8.70;100.00;96849.00;4981328;28;20070;-50
2022/02/10 21:36:59;;;;;;;16.10;10.60;;;;;;;8.64;100.00;96840.81;4984100;28;20522;-53
2022/02/10 21:39:38;;;;;;;16.85;10.80;;;;;;;8.78;100.00;96851.88;4986810;28;20473;-52
2022/02/10 21:43:19;;;;;;;18.85;10.90;;;;;;;8.66;100.00;96850.22;5004029;28;20673;-45
2022/02/10 21:48:26;;;;;;;15.35;10.82;;;;;;;9.04;100.00;96847.09;4980632;28;21572;-50
2022/02/10 21:57:00;;;;;;;15.90;10.95;;;;;;;9.10;100.00;96848.41;4954918;28;20512;-54
2022/02/10 21:59:48;;;;;;;17.35;10.85;;;;;;;9.13;100.00;96834.19;5001238;28;20069;-48
2022/02/10 22:10:54;;;;;;;34.42;19.42;;;;;;;8.97;100.00;96830.16;5000856;28;20073;-52
2022/02/10 22:19:05;;;;;;;18.25;12.25;;;;;;;8.99;100.00;96812.47;4977475;28;20528;-55
2022/02/10 22:21:36;;;;;;;18.33;11.50;;;;;;;9.11;100.00;96812.41;5003077;28;20082;-48
2022/02/10 22:24:16;;;;;;;19.40;12.20;;;;;;;9.08;100.00;96812.66;4982816;28;20081;-51
2022/02/10 22:26:45;;;;;;;18.42;12.35;;;;;;;9.15;100.00;96812.06;4983700;28;20058;-55
2022/02/10 22:29:18;;;;;;;18.25;13.32;;;;;;;8.95;100.00;96818.13;4985236;28;20058;-53
2022/02/10 22:31:57;;;;;;;21.02;13.13;;;;;;;9.12;100.00;96809.66;4983844;28;20112;-57
2022/02/10 22:34:35;;;;;;;21.02;12.05;;;;;;;9.06;100.00;96819.88;4982102;28;20121;-48
2022/02/10 22:37:06;;;;;;;17.13;11.77;;;;;;;9.08;100.00;96813.50;4982722;28;20105;-48
2022/02/10 22:39:41;;;;;;;20.17;11.45;;;;;;;9.06;100.00;96809.34;4984833;28;20082;-47
2022/02/10 22:42:10;;;;;;;17.95;13.07;;;;;;;9.04;100.00;96802.38;4977677;28;20078;-48
2022/02/10 22:44:39;;;;;;;18.63;11.90;;;;;;;9.10;100.00;96806.31;4982753;28;20072;-47
2022/02/10 22:47:08;;;;;;;19.90;12.80;;;;;;;9.01;100.00;96804.44;4980999;28;20085;-49
2022/02/10 22:49:37;;;;;;;20.27;13.52;;;;;;;9.01;100.00;96796.53;4984033;28;20076;-48
2022/02/10 22:52:06;;;;;;;25.90;14.80;;;;;;;9.14;100.00;96788.47;4981570;28;20073;-51
2022/02/10 22:54:36;;;;;;;22.73;14.40;;;;;;;8.96;100.00;96796.94;4980632;28;20074;-52
2022/02/10 22:57:05;;;;;;;18.77;12.30;;;;;;;9.09;100.00;96780.97;4979569;28;20090;-47
2022/02/10 22:59:34;;;;;;;16.20;11.60;;;;;;;8.87;100.00;96791.59;4976717;28;20074;-48
2022/02/10 23:02:02;;;;;;;18.45;11.93;;;;;;;9.10;100.00;96789.69;4984757;28;20520;-50
2022/02/10 23:04:31;;;;;;;15.02;11.63;;;;;;;9.03;100.00;96784.13;4992337;28;20100;-57
2022/02/10 23:07:06;;;;;;;16.90;11.85;;;;;;;8.93;100.00;96781.41;4998060;28;20069;-49
2022/02/10 23:09:41;;;;;;;20.27;11.60;;;;;;;8.54;100.00;96786.34;4985477;28;20123;-49
2022/02/10 23:12:11;;;;;;;19.08;12.73;;;;;;;8.28;100.00;96780.50;4978935;28;20086;-47
2022/02/10 23:14:39;;;;;;;19.15;13.38;;;;;;;8.25;100.00;96785.16;4974629;28;20066;-52
2022/02/10 23:17:07;;;;;;;20.58;13.15;;;;;;;8.48;100.00;96780.72;4979853;28;20070;-54
2022/02/10 23:19:38;;;;;;;19.98;13.73;;;;;;;8.41;100.00;96774.31;4989040;28;20058;-49
2022/02/10 23:22:07;;;;;;;20.45;13.70;;;;;;;8.03;100.00;96772.91;4997884;28;20094;-48
2022/02/10 23:24:41;;;;;;;18.55;12.60;;;;;;;8.20;100.00;96764.53;4986829;28;20540;-47
2022/02/10 23:27:09;;;;;;;18.48;12.30;;;;;;;7.85;100.00;96767.31;4988084;28;20081;-48
2022/02/10 23:29:38;;;;;;;23.23;12.73;;;;;;;8.07;100.00;96772.53;4982353;28;20078;-51
2022/02/10 23:32:07;;;;;;;18.00;12.63;;;;;;;7.67;100.00;96753.81;4983551;28;20089;-48
2022/02/10 23:34:36;;;;;;;20.80;13.07;;;;;;;7.72;100.00;96756.09;4978698;28;20505;-54
2022/02/10 23:37:08;;;;;;;19.67;12.57;;;;;;;7.48;100.00;96748.34;4980748;28;20073;-50
2022/02/10 23:39:39;;;;;;;16.02;12.52;;;;;;;7.86;100.00;96742.72;4976694;28;20101;-52
2022/02/10 23:42:14;;;;;;;;;;;;;;;8.28;100.00;96738.47;4986166;28;20074;-47
2022/02/10 23:44:45;;;;;;;21.60;13.50;;;;;;;8.19;100.00;96733.97;4981091;28;19969;-49
2022/02/10 23:47:19;;;;;;;19.45;13.65;;;;;;;8.42;100.00;96729.50;4977556;28;20085;-57
2022/02/10 23:49:51;;;;;;;20.30;14.07;;;;;;;8.41;100.00;96738.34;4977629;28;20061;-49
2022/02/10 23:52:23;;;;;;;18.40;13.07;;;;;;;8.54;100.00;96719.78;4981342;28;20521;-50
2022/02/10 23:54:57;;;;;;;20.90;12.48;;;;;;;8.46;100.00;96720.41;4981248;28;20066;-54
2022/02/10 23:57:35;;;;;;;16.27;11.15;;;;;;;8.36;100.00;96722.06;4982913;28;20082;-51
